Time;durP1;ratioP1;P1;durP2;ratioP2;P2;SDS_P1;SDS_P2;PMS_P1;PMS_P2;Temp;Humidity;BMP_temperature;BMP_pressure;BME280_temperature;BME280_humidity;BME280_pressure;Samples;Min_cycle;Max_cycle;Signal;HPM_P1;HPM_P2
2023/12/04 00:00:20;;;;;;;72.05;32.40;;;;;;;-5.35;100.00;101639.09;7398706;19;20022;-69
2023/12/04 00:02:48;;;;;;;67.93;31.95;;;;;;;-5.35;100.00;101633.13;7400412;19;20481;-68
2023/12/04 00:05:20;;;;;;;66.10;30.30;;;;;;;-5.37;100.00;101639.81;7401194;19;20015;-67
2023/12/04 00:07:48;;;;;;;66.93;30.52;;;;;;;-5.38;100.00;101638.94;7398918;19;20031;-67
2023/12/04 00:10:17;;;;;;;62.05;28.63;;;;;;;-5.40;100.00;101633.75;7400704;19;20015;-68
2023/12/04 00:12:45;;;;;;;66.45;30.42;;;;;;;-5.41;100.00;101634.53;7400549;19;20023;-68
2023/12/04 00:15:14;;;;;;;68.28;31.48;;;;;;;-5.41;100.00;101631.06;7400907;19;20022;-67
2023/12/04 00:17:42;;;;;;;72.25;32.58;;;;;;;-5.42;100.00;101630.19;7399945;19;20027;-68
2023/12/04 00:20:12;;;;;;;67.30;31.75;;;;;;;-5.43;100.00;101633.53;7400414;19;20498;-68
2023/12/04 00:22:43;;;;;;;61.70;30.75;;;;;;;-5.43;100.00;101632.69;7400359;19;20015;-68
2023/12/04 00:25:12;;;;;;;62.65;29.92;;;;;;;-5.45;100.00;101627.44;7398449;19;20006;-68
2023/12/04 00:27:40;;;;;;;63.45;30.15;;;;;;;-5.45;100.00;101622.34;7400542;19;20007;-68
2023/12/04 00:30:10;;;;;;;64.20;31.40;;;;;;;-5.44;100.00;101628.34;7398613;19;20022;-68
2023/12/04 00:32:38;;;;;;;66.13;30.17;;;;;;;-5.45;100.00;101627.44;7397731;19;20019;-68
2023/12/04 00:35:08;;;;;;;63.28;30.00;;;;;;;-5.43;100.00;101625.00;7400347;19;20035;-68
2023/12/04 00:37:38;;;;;;;68.90;30.90;;;;;;;-5.45;100.00;101622.34;7399483;19;20411;-67
2023/12/04 00:40:10;;;;;;;65.40;29.73;;;;;;;-5.45;100.00;101621.47;7400439;19;20032;-67
2023/12/04 00:42:39;;;;;;;65.38;28.92;;;;;;;-5.45;100.00;101629.13;7397893;19;20011;-73
2023/12/04 00:45:08;;;;;;;69.47;31.83;;;;;;;-5.46;100.00;101620.59;7400034;19;20015;-67
2023/12/04 00:47:37;;;;;;;64.43;28.85;;;;;;;-5.45;100.00;101619.78;7396951;19;20027;-67
2023/12/04 00:50:06;;;;;;;60.50;29.30;;;;;;;-5.46;100.00;101615.47;7399330;19;20473;-68
2023/12/04 00:52:35;;;;;;;54.95;26.67;;;;;;;-5.47;100.00;101623.03;7397140;19;20079;-67
2023/12/04 00:55:03;;;;;;;66.32;29.45;;;;;;;-5.49;100.00;101617.84;7399212;19;20011;-67
2023/12/04 00:57:34;;;;;;;63.50;29.17;;;;;;;-5.49;100.00;101616.97;7398989;19;20031;-68
2023/12/04 01:00:03;;;;;;;55.60;28.10;;;;;;;-5.50;100.00;101616.06;7399683;19;20022;-68
2023/12/04 01:02:31;;;;;;;56.00;27.30;;;;;;;-5.51;100.00;101616.91;7399118;19;20363;-67
2023/12/04 01:05:00;;;;;;;58.72;28.08;;;;;;;-5.51;100.00;101613.44;7399245;19;20018;-68
2023/12/04 01:07:29;;;;;;;62.75;28.70;;;;;;;-5.52;100.00;101615.13;7398459;19;20027;-68
2023/12/04 01:09:57;;;;;;;53.83;27.35;;;;;;;-5.52;100.00;101616.78;7399181;19;20018;-68
2023/12/04 01:12:26;;;;;;;55.65;26.95;;;;;;;-5.53;100.00;101612.44;7398992;19;20414;-68
2023/12/04 01:14:57;;;;;;;66.07;31.00;;;;;;;-5.54;100.00;101606.47;7398986;19;20018;-68
2023/12/04 01:17:25;;;;;;;69.40;31.83;;;;;;;-5.53;100.00;101602.22;7398237;19;20481;-68
2023/12/04 01:19:54;;;;;;;74.50;33.63;;;;;;;-5.52;100.00;101604.00;7396598;19;20027;-68
2023/12/04 01:22:22;;;;;;;68.88;31.42;;;;;;;-5.51;100.00;101598.09;7398850;19;20031;-68
2023/12/04 01:24:51;;;;;;;56.13;28.10;;;;;;;-5.51;100.00;101596.44;7396510;19;20035;-68
2023/12/04 01:27:19;;;;;;;57.45;28.58;;;;;;;-5.49;100.00;101599.94;7398619;19;20031;-67
2023/12/04 01:29:48;;;;;;;57.92;31.15;;;;;;;-5.47;100.00;101603.47;7395941;19;20035;-68
2023/12/04 01:32:19;;;;;;;57.30;28.27;;;;;;;-5.45;100.00;101606.13;7395992;19;20011;-68
2023/12/04 01:34:47;;;;;;;57.15;28.15;;;;;;;-5.43;100.00;101604.53;7396154;19;20028;-67
2023/12/04 01:37:16;;;;;;;59.88;29.80;;;;;;;-5.42;100.00;101604.63;7398232;19;20427;-67
2023/12/04 01:39:44;;;;;;;57.10;26.85;;;;;;;-5.40;100.00;101591.91;7396182;19;20060;-67
2023/12/04 01:42:13;;;;;;;59.80;29.45;;;;;;;-5.37;100.00;101594.66;7397693;19;20074;-67
2023/12/04 01:44:41;;;;;;;49.58;26.90;;;;;;;-5.36;100.00;101591.28;7396104;19;20014;-67
2023/12/04 01:47:20;;;;;;;54.33;26.80;;;;;;;-5.34;100.00;101599.94;7398211;19;20027;-67
2023/12/04 01:49:49;;;;;;;60.03;27.95;;;;;;;-5.33;100.00;101596.59;7396043;19;20384;-67
2023/12/04 01:52:18;;;;;;;60.40;27.05;;;;;;;-5.31;100.00;101594.13;7397375;19;20027;-67
2023/12/04 01:54:47;;;;;;;53.80;26.25;;;;;;;-5.30;100.00;101591.63;7395402;19;20011;-67
2023/12/04 01:57:15;;;;;;;58.90;28.30;;;;;;;-5.29;100.00;101583.16;7397240;19;20534;-68
2023/12/04 01:59:44;;;;;;;55.55;28.38;;;;;;;-5.28;100.00;101587.50;7395576;19;20018;-67
2023/12/04 02:02:12;;;;;;;56.10;27.10;;;;;;;-5.28;100.00;101582.38;7397061;19;20541;-68
2023/12/04 02:04:44;;;;;;;55.70;26.45;;;;;;;-5.26;100.00;101583.38;7395197;19;20031;-68
2023/12/04 02:07:12;;;;;;;57.67;28.10;;;;;;;-5.26;100.00;101579.91;7396052;19;20075;-67
2023/12/04 02:09:41;;;;;;;57.25;29.75;;;;;;;-5.25;100.00;101581.66;7397251;19;20031;-67
2023/12/04 02:12:09;;;;;;;53.67;27.02;;;;;;;-5.26;100.00;101579.91;7397116;19;20014;-68
2023/12/04 02:14:38;;;;;;;55.97;28.92;;;;;;;-5.26;100.00;101570.56;7395214;19;20481;-67
2023/12/04 02:17:08;;;;;;;96.13;41.15;;;;;;;-5.26;100.00;101573.13;7396689;19;20473;-67
2023/12/04 02:19:36;;;;;;;103.78;42.78;;;;;;;-5.26;100.00;101570.56;7393619;19;20354;-67
2023/12/04 02:22:08;;;;;;;120.15;48.28;;;;;;;-5.25;100.00;101556.09;7396389;19;20425;-68
2023/12/04 02:24:39;;;;;;;69.10;33.17;;;;;;;-5.25;100.00;101553.53;7395217;19;20065;-68
2023/12/04 02:27:10;;;;;;;56.80;26.92;;;;;;;-5.26;100.00;101555.22;7396294;19;20011;-68
2023/12/04 02:29:43;;;;;;;55.75;26.60;;;;;;;-5.26;100.00;101544.09;7395572;19;20477;-68
2023/12/04 02:32:17;;;;;;;52.15;27.77;;;;;;;-5.27;100.00;101550.00;7396461;19;20019;-67
2023/12/04 02:34:48;;;;;;;50.42;24.85;;;;;;;-5.26;100.00;101539.88;7394882;19;20014;-68
2023/12/04 02:37:17;;;;;;;50.22;25.80;;;;;;;-5.28;100.00;101523.53;7396611;19;20018;-68
2023/12/04 02:39:49;;;;;;;51.38;25.98;;;;;;;-5.25;100.00;101530.50;7394410;19;20469;-68
2023/12/04 02:42:18;;;;;;;50.70;25.90;;;;;;;-5.25;100.00;101522.81;7396589;19;20015;-67
2023/12/04 02:44:46;;;;;;;47.75;25.83;;;;;;;-5.26;100.00;101532.19;7394378;19;20031;-68
2023/12/04 02:47:15;;;;;;;45.03;23.75;;;;;;;-5.26;100.00;101534.75;7395510;19;20085;-68
2023/12/04 02:49:43;;;;;;;48.83;24.00;;;;;;;-5.27;100.00;101542.31;7395874;19;20035;-68
2023/12/04 02:52:12;;;;;;;51.25;26.05;;;;;;;-5.29;100.00;101526.88;7395444;19;20023;-68
2023/12/04 02:54:40;;;;;;;52.55;25.35;;;;;;;-5.30;100.00;101521.69;7394040;19;20018;-73
2023/12/04 02:57:11;;;;;;;47.35;24.42;;;;;;;-5.32;100.00;101518.16;7395560;19;20502;-67
2023/12/04 02:59:40;;;;;;;50.10;23.60;;;;;;;-5.34;100.00;101514.66;7395587;19;20006;-71
2023/12/04 03:02:08;;;;;;;52.20;25.08;;;;;;;-5.34;100.00;101517.22;7395573;19;20078;-68
2023/12/04 03:04:37;;;;;;;47.15;22.90;;;;;;;-5.36;100.00;101508.56;7393554;19;20014;-67
2023/12/04 03:07:06;;;;;;;45.85;24.58;;;;;;;-5.38;100.00;101520.38;7395089;19;20423;-68
2023/12/04 03:09:34;;;;;;;49.40;24.10;;;;;;;-5.42;100.00;101507.44;7395346;19;20027;-67
2023/12/04 03:12:02;;;;;;;46.78;23.90;;;;;;;-5.43;100.00;101513.34;7395659;19;20418;-67
2023/12/04 03:14:34;;;;;;;61.70;25.00;;;;;;;-5.45;100.00;101498.69;7394887;19;20024;-67
2023/12/04 03:17:02;;;;;;;44.70;23.63;;;;;;;-5.47;100.00;101505.41;7394325;19;20098;-67
2023/12/04 03:19:30;;;;;;;49.50;24.67;;;;;;;-5.49;100.00;101500.22;7393992;19;20091;-66
2023/12/04 03:21:59;;;;;;;42.50;23.98;;;;;;;-5.50;100.00;101498.44;7394733;19;20022;-65
2023/12/04 03:24:27;;;;;;;49.38;23.90;;;;;;;-5.53;100.00;101500.84;7392979;19;20015;-66
2023/12/04 03:26:56;;;;;;;95.10;40.72;;;;;;;-5.56;100.00;101486.22;7394928;19;20023;-68
2023/12/04 03:29:24;;;;;;;61.38;29.13;;;;;;;-5.54;100.00;101503.31;7392615;19;20074;-66
2023/12/04 03:31:55;;;;;;;56.15;26.88;;;;;;;-5.54;100.00;101496.50;7396808;19;20481;-67
2023/12/04 03:34:24;;;;;;;44.63;22.52;;;;;;;-5.56;100.00;101503.22;7399740;19;20384;-67
2023/12/04 03:36:52;;;;;;;47.05;23.38;;;;;;;-5.57;100.00;101493.81;7402263;19;20010;-67
2023/12/04 03:39:20;;;;;;;49.35;24.02;;;;;;;-5.58;100.00;101494.59;7400200;19;20010;-67
2023/12/04 03:41:49;;;;;;;47.58;24.23;;;;;;;-5.60;100.00;101484.28;7401976;19;20107;-67
2023/12/04 03:44:18;;;;;;;46.55;23.63;;;;;;;-5.61;100.00;101482.53;7399839;19;20022;-67
2023/12/04 03:46:46;;;;;;;47.80;23.40;;;;;;;-5.62;100.00;101485.00;7401507;19;20378;-67
2023/12/04 03:49:24;;;;;;;46.58;23.35;;;;;;;-5.63;100.00;101483.22;7399126;19;20014;-67
2023/12/04 03:51:52;;;;;;;49.45;23.80;;;;;;;-5.64;100.00;101481.47;7399582;19;20023;-68
2023/12/04 03:54:20;;;;;;;49.38;24.38;;;;;;;-5.65;100.00;101480.59;7399039;19;20481;-68
2023/12/04 03:56:49;;;;;;;47.60;26.25;;;;;;;-5.64;100.00;101478.91;7401500;19;20031;-67
2023/12/04 03:59:17;;;;;;;47.30;23.02;;;;;;;-5.65;100.00;101483.16;7399877;19;20367;-68
2023/12/04 04:01:46;;;;;;;46.42;23.45;;;;;;;-5.65;100.00;101490.81;7400942;19;20014;-68
2023/12/04 04:04:17;;;;;;;50.75;22.80;;;;;;;-5.65;100.00;101482.25;7398777;19;20426;-68
2023/12/04 04:06:45;;;;;;;42.50;22.17;;;;;;;-5.66;100.00;101480.47;7401442;19;20011;-69
2023/12/04 04:09:14;;;;;;;47.30;21.85;;;;;;;-5.66;100.00;101467.69;7401420;19;20027;-69
2023/12/04 04:11:42;;;;;;;49.28;24.25;;;;;;;-5.67;100.00;101478.72;7400905;19;20010;-68
2023/12/04 04:14:11;;;;;;;46.63;22.80;;;;;;;-5.67;100.00;101471.03;7399553;19;20082;-68
2023/12/04 04:16:39;;;;;;;45.55;24.38;;;;;;;-5.68;100.00;101462.50;7400481;19;20020;-68
2023/12/04 04:19:08;;;;;;;45.00;22.08;;;;;;;-5.68;100.00;101456.53;7400006;19;20014;-68
2023/12/04 04:21:42;;;;;;;50.40;24.40;;;;;;;-5.64;100.00;101466.13;7400276;19;20028;-67
2023/12/04 04:24:10;;;;;;;47.30;24.35;;;;;;;-5.63;100.00;101462.78;7398495;19;20506;-67
2023/12/04 04:26:39;;;;;;;46.55;24.75;;;;;;;-5.62;100.00;101465.41;7400618;19;20012;-68
2023/12/04 04:29:08;;;;;;;51.22;25.13;;;;;;;-5.60;100.00;101457.81;7400161;19;20027;-68
2023/12/04 04:31:36;;;;;;;52.33;25.08;;;;;;;-5.59;100.00;101462.13;7398087;19;20508;-68
2023/12/04 04:34:05;;;;;;;47.20;23.02;;;;;;;-5.59;100.00;101463.00;7398560;19;20018;-67
2023/12/04 04:36:35;;;;;;;49.33;25.45;;;;;;;-5.57;100.00;101465.69;7400207;19;20038;-67
2023/12/04 04:39:06;;;;;;;48.83;23.73;;;;;;;-5.56;100.00;101464.84;7399109;19;20014;-67
2023/12/04 04:41:34;;;;;;;49.63;23.30;;;;;;;-5.54;100.00;101460.72;7396709;19;20011;-68
2023/12/04 04:44:03;;;;;;;44.50;24.23;;;;;;;-5.53;100.00;101453.91;7397786;19;20014;-67
2023/12/04 04:46:31;;;;;;;48.13;23.95;;;;;;;-5.53;100.00;101452.25;7399894;19;20031;-67
2023/12/04 04:49:00;;;;;;;50.92;24.65;;;;;;;-5.52;100.00;101448.91;7398918;19;20014;-67
2023/12/04 04:51:30;;;;;;;49.03;23.15;;;;;;;-5.51;100.00;101458.34;7399654;19;20066;-67
2023/12/04 04:53:58;;;;;;;49.05;26.08;;;;;;;-5.52;100.00;101454.03;7396732;19;20015;-68
2023/12/04 04:56:29;;;;;;;50.85;25.98;;;;;;;-5.50;100.00;101454.97;7397228;19;20011;-67
2023/12/04 04:58:58;;;;;;;48.13;23.17;;;;;;;-5.50;100.00;101449.84;7399004;19;20032;-67
2023/12/04 05:01:26;;;;;;;54.05;25.48;;;;;;;-5.48;100.00;101447.41;7396537;19;20007;-67
2023/12/04 05:03:55;;;;;;;57.58;26.92;;;;;;;-5.47;100.00;101447.47;7397620;19;20017;-67
2023/12/04 05:06:24;;;;;;;49.85;26.90;;;;;;;-5.46;100.00;101446.69;7398765;19;20082;-67
2023/12/04 05:08:53;;;;;;;46.88;24.13;;;;;;;-5.45;100.00;101438.19;7398762;19;20010;-67
2023/12/04 05:11:21;;;;;;;51.28;25.02;;;;;;;-5.45;100.00;101435.63;7399164;19;20010;-67
2023/12/04 05:13:52;;;;;;;47.80;23.88;;;;;;;-5.42;100.00;101435.81;7397396;19;20027;-67
2023/12/04 05:16:21;;;;;;;50.38;26.80;;;;;;;-5.41;100.00;101432.47;7398886;19;20489;-68
2023/12/04 05:18:49;;;;;;;47.88;22.88;;;;;;;-5.40;100.00;101426.56;7398508;19;20077;-67
2023/12/04 05:21:18;;;;;;;51.45;24.08;;;;;;;-5.37;100.00;101415.63;7398132;19;20457;-68
2023/12/04 05:23:46;;;;;;;42.95;23.38;;;;;;;-5.34;100.00;101417.47;7397172;19;20018;-68
2023/12/04 05:26:15;;;;;;;44.20;21.83;;;;;;;-5.33;100.00;101408.97;7396354;19;20010;-67
2023/12/04 05:28:43;;;;;;;45.17;23.23;;;;;;;-5.30;100.00;101411.69;7397898;19;20074;-68
2023/12/04 05:31:14;;;;;;;50.80;24.38;;;;;;;-5.29;100.00;101400.69;7396345;19;20014;-68
2023/12/04 05:33:43;;;;;;;45.15;23.17;;;;;;;-5.27;100.00;101404.16;7397365;19;20021;-68
2023/12/04 05:36:12;;;;;;;48.15;24.38;;;;;;;-5.24;100.00;101396.69;7397680;19;20021;-68
2023/12/04 05:38:41;;;;;;;48.40;25.27;;;;;;;-5.22;100.00;101394.19;7396062;19;20014;-68
2023/12/04 05:41:09;;;;;;;46.53;22.15;;;;;;;-5.20;100.00;101396.03;7395736;19;20018;-68
2023/12/04 05:43:38;;;;;;;39.78;22.02;;;;;;;-5.18;100.00;101396.09;7396349;19;20019;-68
2023/12/04 05:46:07;;;;;;;40.85;21.90;;;;;;;-5.16;100.00;101403.06;7397348;19;20138;-68
2023/12/04 05:48:38;;;;;;;48.70;22.40;;;;;;;-5.14;100.00;101400.63;7397510;19;20018;-68
2023/12/04 05:51:07;;;;;;;46.10;22.45;;;;;;;-5.11;100.00;101404.19;7398060;19;20018;-67
2023/12/04 05:53:35;;;;;;;42.88;23.33;;;;;;;-5.10;100.00;101398.28;7394086;19;20074;-69
2023/12/04 05:56:04;;;;;;;47.92;25.48;;;;;;;-5.07;100.00;101395.00;7395978;19;20027;-68
2023/12/04 05:58:32;;;;;;;50.70;26.50;;;;;;;-5.05;100.00;101389.94;7396141;19;20014;-66
2023/12/04 06:01:01;;;;;;;48.13;24.95;;;;;;;-5.05;100.00;101385.72;7393853;19;20033;-68
2023/12/04 06:03:29;;;;;;;45.13;23.10;;;;;;;-5.03;100.00;101396.94;7395982;19;20070;-68
2023/12/04 06:06:00;;;;;;;52.88;25.08;;;;;;;-5.02;100.00;101387.56;7396532;19;20010;-67
2023/12/04 06:08:29;;;;;;;45.30;25.63;;;;;;;-4.98;100.00;101384.34;7396278;19;20006;-68
2023/12/04 06:10:57;;;;;;;45.33;23.50;;;;;;;-4.97;100.00;101378.44;7393790;19;20014;-67
2023/12/04 06:13:26;;;;;;;47.45;24.33;;;;;;;-4.95;100.00;101380.28;7395403;19;20342;-68
2023/12/04 06:15:54;;;;;;;45.88;23.65;;;;;;;-4.95;100.00;101371.75;7395889;19;20094;-67
2023/12/04 06:18:23;;;;;;;40.30;21.90;;;;;;;-4.91;100.00;101361.72;7393990;19;20026;-68
2023/12/04 06:20:51;;;;;;;43.78;23.27;;;;;;;-4.88;100.00;101353.31;7393674;19;20070;-68
2023/12/04 06:23:23;;;;;;;41.17;22.17;;;;;;;-4.86;100.00;101355.97;7392333;19;20006;-67
2023/12/04 06:25:52;;;;;;;41.25;21.10;;;;;;;-4.83;100.00;101359.53;7396028;19;20014;-68
2023/12/04 06:28:21;;;;;;;58.38;30.15;;;;;;;-4.80;100.00;101353.69;7396041;19;20081;-68
2023/12/04 06:30:51;;;;;;;47.42;23.10;;;;;;;-4.76;100.00;101358.19;7393337;19;20114;-67
2023/12/04 06:33:20;;;;;;;43.17;21.27;;;;;;;-4.72;100.00;101352.41;7394366;19;20014;-67
2023/12/04 06:35:49;;;;;;;37.00;21.02;;;;;;;-4.69;100.00;101351.69;7392849;19;20010;-67
2023/12/04 06:38:27;;;;;;;40.45;21.48;;;;;;;-4.66;100.00;101359.50;7396299;19;20094;-66
2023/12/04 06:40:56;;;;;;;40.17;21.77;;;;;;;-4.66;100.00;101350.16;7394755;19;20062;-66
2023/12/04 06:43:25;;;;;;;39.13;21.77;;;;;;;-4.65;100.00;101351.94;7393677;19;20489;-66
2023/12/04 06:45:56;;;;;;;42.42;21.60;;;;;;;-4.64;100.00;101352.78;7393871;19;20090;-66
2023/12/04 06:48:26;;;;;;;42.05;21.15;;;;;;;-4.64;100.00;101352.78;7393689;19;20007;-66
2023/12/04 06:50:54;;;;;;;38.25;22.38;;;;;;;-4.61;100.00;101351.28;7395190;19;20074;-68
2023/12/04 06:53:25;;;;;;;41.95;20.88;;;;;;;-4.60;100.00;101349.56;7394928;19;20031;-67
2023/12/04 06:55:54;;;;;;;39.28;21.13;;;;;;;-4.58;100.00;101350.53;7395104;19;20011;-67
2023/12/04 06:58:23;;;;;;;40.03;21.80;;;;;;;-4.56;100.00;101350.59;7395870;19;20090;-67
2023/12/04 07:00:53;;;;;;;42.55;22.48;;;;;;;-4.55;100.00;101343.00;7393308;19;20013;-66
2023/12/04 07:03:21;;;;;;;40.42;21.52;;;;;;;-4.52;100.00;101343.16;7394348;19;20353;-67
2023/12/04 07:05:50;;;;;;;79.97;38.45;;;;;;;-4.52;100.00;101350.84;7394576;19;20368;-66
2023/12/04 07:08:18;;;;;;;41.65;22.80;;;;;;;-4.51;100.00;101342.38;7394773;19;20023;-66
2023/12/04 07:10:49;;;;;;;40.28;21.25;;;;;;;-4.48;100.00;101333.94;7394659;19;20018;-66
2023/12/04 07:13:17;;;;;;;39.53;22.08;;;;;;;-4.46;100.00;101334.88;7393470;19;20014;-66
2023/12/04 07:15:46;;;;;;;43.33;21.55;;;;;;;-4.45;100.00;101327.31;7393322;19;20085;-66
2023/12/04 07:18:15;;;;;;;42.83;22.50;;;;;;;-4.43;100.00;101333.34;7394455;19;20010;-66
2023/12/04 07:20:43;;;;;;;40.15;21.33;;;;;;;-4.40;100.00;101324.06;7393454;19;20074;-67
2023/12/04 07:23:12;;;;;;;38.00;20.60;;;;;;;-4.38;100.00;101327.59;7394274;19;20043;-66
2023/12/04 07:25:41;;;;;;;39.60;22.15;;;;;;;-4.36;100.00;101328.53;7394165;19;20082;-67
2023/12/04 07:28:12;;;;;;;39.58;21.33;;;;;;;-4.35;100.00;101320.91;7394766;19;20015;-67
2023/12/04 07:30:41;;;;;;;36.72;19.90;;;;;;;-4.31;100.00;101324.50;7393017;19;20010;-67
2023/12/04 07:33:09;;;;;;;44.42;22.90;;;;;;;-4.29;100.00;101323.78;7393700;19;20378;-66
2023/12/04 07:35:38;;;;;;;49.47;26.48;;;;;;;-4.27;100.00;101316.19;7394401;19;20078;-67
2023/12/04 07:38:06;;;;;;;59.88;31.33;;;;;;;-4.23;100.00;101318.09;7392348;19;20422;-67
2023/12/04 07:40:35;;;;;;;46.33;25.42;;;;;;;-4.20;100.00;101327.59;7393278;19;20078;-66
2023/12/04 07:43:03;;;;;;;48.83;28.33;;;;;;;-4.17;100.00;101322.59;7393525;19;20376;-67
2023/12/04 07:45:41;;;;;;;48.78;26.23;;;;;;;-4.16;100.00;101324.38;7393580;19;20010;-67
2023/12/04 07:48:16;;;;;;;51.65;26.15;;;;;;;-4.13;100.00;101322.84;7391630;19;20014;-67
2023/12/04 07:50:45;;;;;;;42.53;24.10;;;;;;;-4.09;100.00;101319.59;7393726;19;20010;-67
2023/12/04 07:53:13;;;;;;;41.17;21.77;;;;;;;-4.05;100.00;101323.19;7392672;19;20018;-67
2023/12/04 07:55:43;;;;;;;45.10;23.80;;;;;;;-3.94;100.00;101318.59;7394263;19;20007;-67
2023/12/04 07:58:12;;;;;;;46.58;24.90;;;;;;;-3.83;100.00;101319.97;7391115;19;20478;-67
2023/12/04 08:00:43;;;;;;;42.67;22.45;;;;;;;-3.74;100.00;101316.03;7392685;19;20014;-67
2023/12/04 08:03:11;;;;;;;36.70;21.35;;;;;;;-3.70;100.00;101315.38;7393267;19;20014;-68
2023/12/04 08:05:40;;;;;;;36.45;21.02;;;;;;;-3.66;100.00;101312.16;7393525;19;20007;-66
2023/12/04 08:08:08;;;;;;;37.65;21.98;;;;;;;-3.65;100.00;101311.31;7392096;19;20078;-68
2023/12/04 08:10:37;;;;;;;33.67;20.77;;;;;;;-3.64;100.00;101313.09;7395977;19;20011;-67
2023/12/04 08:13:05;;;;;;;33.28;19.67;;;;;;;-3.63;100.00;101313.19;7392525;19;20074;-67
2023/12/04 08:15:34;;;;;;;37.58;20.35;;;;;;;-3.60;100.00;101303.03;7393189;19;20074;-68
2023/12/04 08:18:05;;;;;;;35.00;21.67;;;;;;;-3.58;100.00;101300.53;7397752;19;20506;-67
2023/12/04 08:20:33;;;;;;;39.17;23.17;;;;;;;-3.55;100.00;101298.13;7398969;19;20034;-66
2023/12/04 08:23:02;;;;;;;36.03;22.08;;;;;;;-3.54;100.00;101299.00;7399732;19;20078;-67
2023/12/04 08:25:31;;;;;;;38.17;23.83;;;;;;;-3.52;100.00;101293.13;7400059;19;20156;-67
2023/12/04 08:28:02;;;;;;;36.70;22.02;;;;;;;-3.51;100.00;101300.00;7398893;19;20495;-66
2023/12/04 08:30:58;;;;;;;36.78;21.27;;;;;;;-3.46;100.00;101301.09;7397845;19;20011;-66
2023/12/04 08:33:36;;;;;;;32.17;19.92;;;;;;;-3.43;100.00;101295.22;7398760;19;20007;-65
2023/12/04 08:36:04;;;;;;;95.18;46.58;;;;;;;-3.43;100.00;101287.53;7399537;19;20066;-65
2023/12/04 08:38:33;;;;;;;46.45;24.45;;;;;;;-3.36;100.00;101283.53;7397913;19;20018;-66
2023/12/04 08:41:02;;;;;;;34.92;20.05;;;;;;;-3.34;100.00;101277.66;7397872;19;20383;-66
2023/12/04 08:43:31;;;;;;;33.92;17.63;;;;;;;-3.31;100.00;101275.22;7398570;19;20098;-69
2023/12/04 08:46:00;;;;;;;35.80;19.63;;;;;;;-3.29;100.00;101277.84;7399568;19;20010;-66
2023/12/04 08:48:28;;;;;;;34.58;19.30;;;;;;;-3.24;100.00;101285.75;7398984;19;20018;-67
2023/12/04 08:50:59;;;;;;;32.58;17.90;;;;;;;-3.22;100.00;101287.59;7399559;19;20048;-68
2023/12/04 08:53:28;;;;;;;31.48;18.20;;;;;;;-3.17;100.00;101291.22;7397241;19;20028;-66
2023/12/04 08:55:57;;;;;;;31.45;18.33;;;;;;;-3.14;100.00;101288.78;7399572;19;20014;-67
2023/12/04 08:58:25;;;;;;;31.75;19.17;;;;;;;-3.09;100.00;101296.69;7396161;19;20502;-67
2023/12/04 09:00:54;;;;;;;34.10;19.27;;;;;;;-3.06;100.00;101295.94;7398298;19;20190;-66
2023/12/04 09:03:23;;;;;;;29.92;18.17;;;;;;;-3.04;100.00;101297.75;7398424;19;20046;-67
2023/12/04 09:05:51;;;;;;;35.53;20.20;;;;;;;-2.99;100.00;101295.41;7399360;19;20149;-67
2023/12/04 09:08:22;;;;;;;30.63;18.85;;;;;;;-2.96;100.00;101293.84;7398700;19;20074;-66
2023/12/04 09:10:51;;;;;;;30.98;18.40;;;;;;;-2.93;100.00;101292.19;7398479;19;20074;-66
2023/12/04 09:13:19;;;;;;;28.83;16.77;;;;;;;-2.89;100.00;101304.34;7397526;19;20501;-65
2023/12/04 09:15:48;;;;;;;29.23;16.75;;;;;;;-2.86;100.00;101297.66;7398878;19;20035;-67
2023/12/04 09:18:16;;;;;;;31.77;17.48;;;;;;;-2.81;100.00;101306.41;7399025;19;20081;-65
2023/12/04 09:20:45;;;;;;;29.38;17.25;;;;;;;-2.78;100.00;101298.84;7397973;19;20015;-66
2023/12/04 09:23:13;;;;;;;29.48;18.30;;;;;;;-2.73;100.00;101306.75;7397612;19;20014;-66
2023/12/04 09:25:44;;;;;;;24.85;15.57;;;;;;;-2.67;100.00;101306.13;7398494;19;20019;-66
2023/12/04 09:28:13;;;;;;;27.67;16.90;;;;;;;-2.62;100.00;101305.53;7396008;19;20011;-66
2023/12/04 09:30:41;;;;;;;31.30;18.48;;;;;;;-2.57;100.00;101307.38;7397409;19;20025;-66
2023/12/04 09:33:10;;;;;;;30.15;17.00;;;;;;;-2.52;100.00;101305.88;7397018;19;20028;-65
2023/12/04 09:35:38;;;;;;;29.17;17.15;;;;;;;-2.48;100.00;101302.63;7398055;19;20081;-64
2023/12/04 09:38:07;;;;;;;31.35;18.33;;;;;;;-2.43;100.00;101297.66;7397848;19;20015;-64
2023/12/04 09:40:35;;;;;;;26.90;16.40;;;;;;;-2.39;99.60;101294.41;7397589;19;20086;-65
2023/12/04 09:43:08;;;;;;;32.92;17.98;;;;;;;-2.35;99.26;101296.25;7397193;19;20426;-62
2023/12/04 09:45:37;;;;;;;30.05;17.77;;;;;;;-2.30;100.00;101290.50;7397119;19;20007;-64
2023/12/04 09:48:09;;;;;;;27.60;16.70;;;;;;;-2.25;99.68;101290.69;7397432;19;20019;-65
2023/12/04 09:50:38;;;;;;;30.63;17.40;;;;;;;-2.21;99.85;101292.56;7395570;19;20014;-65
2023/12/04 09:53:09;;;;;;;29.98;17.50;;;;;;;-2.17;99.49;101288.44;7396855;19;20111;-65
2023/12/04 09:55:43;;;;;;;29.77;16.92;;;;;;;-2.12;99.33;101284.34;7397869;19;20011;-65
2023/12/04 09:58:17;;;;;;;29.17;16.63;;;;;;;-2.09;98.64;101287.00;7397511;19;20010;-66
2023/12/04 10:00:46;;;;;;;27.70;15.57;;;;;;;-2.04;98.13;101282.06;7396658;19;20069;-66
2023/12/04 10:03:15;;;;;;;27.08;15.20;;;;;;;-2.00;98.26;101281.34;7395760;19;20010;-66
2023/12/04 10:05:47;;;;;;;25.60;14.93;;;;;;;-1.97;96.90;101281.47;7396382;19;20013;-65
2023/12/04 10:08:16;;;;;;;23.92;13.93;;;;;;;-1.92;98.45;101274.81;7397443;19;20017;-66
2023/12/04 10:10:45;;;;;;;26.90;15.68;;;;;;;-1.90;97.86;101275.72;7397070;19;20010;-67
2023/12/04 10:13:16;;;;;;;24.95;15.75;;;;;;;-1.86;98.10;101269.91;7396122;19;20086;-66
2023/12/04 10:15:49;;;;;;;24.17;14.48;;;;;;;-1.83;97.58;101270.00;7396836;19;20031;-66
2023/12/04 10:18:29;;;;;;;28.15;15.93;;;;;;;-1.78;97.45;101259.00;7396832;19;20010;-66
2023/12/04 10:20:57;;;;;;;28.85;17.80;;;;;;;-1.75;96.70;101252.28;7394629;19;20423;-66
2023/12/04 10:23:40;;;;;;;25.58;15.82;;;;;;;-1.73;97.47;101255.78;7395839;19;20025;-66
2023/12/04 10:26:09;;;;;;;24.08;15.07;;;;;;;-1.71;96.80;101236.13;7396718;19;20014;-67
2023/12/04 10:28:40;;;;;;;26.08;15.55;;;;;;;-1.68;97.05;101241.41;7396068;19;20015;-67
2023/12/04 10:31:09;;;;;;;28.45;16.10;;;;;;;-1.66;96.27;101231.16;7394776;19;20021;-67
2023/12/04 10:33:37;;;;;;;23.75;14.80;;;;;;;-1.62;97.34;101225.28;7394932;19;20022;-68
2023/12/04 10:36:13;;;;;;;22.98;14.65;;;;;;;-1.58;97.21;101219.47;7396068;19;20454;-66
2023/12/04 10:38:42;;;;;;;21.52;14.02;;;;;;;-1.56;95.80;101210.06;7396340;19;20410;-68
2023/12/04 10:41:15;;;;;;;24.60;14.65;;;;;;;-1.54;96.22;101211.00;7394211;19;20023;-67
2023/12/04 10:43:51;;;;;;;22.25;14.15;;;;;;;-1.49;96.24;101208.63;7394872;19;20477;-67
2023/12/04 10:46:22;;;;;;;35.38;22.58;;;;;;;-1.48;95.73;101200.03;7395506;19;20517;-67
2023/12/04 10:48:50;;;;;;;28.95;18.45;;;;;;;-1.42;96.48;101204.53;7395760;19;20066;-68
2023/12/04 10:51:21;;;;;;;23.35;15.05;;;;;;;-1.37;95.40;101197.84;7395461;19;20442;-68
2023/12/04 10:53:50;;;;;;;21.13;14.48;;;;;;;-1.35;93.92;101196.22;7394060;19;20014;-67
2023/12/04 10:56:22;;;;;;;20.85;13.45;;;;;;;-1.33;95.06;101187.72;7395163;19;20031;-68
2023/12/04 10:58:55;;;;;;;19.00;12.73;;;;;;;-1.28;95.26;101187.00;7393916;19;20011;-67
2023/12/04 11:01:26;;;;;;;21.83;12.82;;;;;;;-1.23;95.84;101186.31;7394460;19;20010;-67
2023/12/04 11:03:55;;;;;;;18.25;11.77;;;;;;;-1.20;92.78;101190.69;7393837;19;20496;-67
2023/12/04 11:06:27;;;;;;;25.90;14.35;;;;;;;-1.17;94.75;101191.66;7394535;19;20022;-68
2023/12/04 11:08:59;;;;;;;22.65;13.50;;;;;;;-1.12;93.92;101188.41;7394952;19;20537;-68
2023/12/04 11:11:33;;;;;;;18.23;12.52;;;;;;;-1.12;92.67;101173.81;7395704;19;20027;-69